Time;durP1;ratioP1;P1;durP2;ratioP2;P2;SDS_P1;SDS_P2;PMS_P1;PMS_P2;Temp;Humidity;BMP_temperature;BMP_pressure;BME280_temperature;BME280_humidity;BME280_pressure;Samples;Min_cycle;Max_cycle;Signal;HPM_P1;HPM_P2
2023/10/10 00:01:00;;;;;;;9.65;3.72;;;14.80;99.90;;;;;;5049650;28;20443;-74
2023/10/10 00:03:27;;;;;;;9.43;4.38;;;14.80;99.90;;;;;;5049417;28;20037;-73
2023/10/10 00:05:55;;;;;;;7.47;3.75;;;14.80;99.90;;;;;;5049182;28;20043;-75
2023/10/10 00:08:27;;;;;;;6.95;3.75;;;14.80;99.90;;;;;;5048478;28;20041;-73
2023/10/10 00:10:55;;;;;;;7.60;3.90;;;14.80;99.90;;;;;;5048403;28;20033;-75
2023/10/10 00:13:23;;;;;;;7.63;4.00;;;14.80;99.90;;;;;;5049491;28;20066;-74
2023/10/10 00:15:55;;;;;;;12.82;4.60;;;14.80;99.90;;;;;;5048343;28;20087;-74
2023/10/10 00:18:21;;;;;;;7.07;3.70;;;14.80;99.90;;;;;;5047246;28;20045;-74
2023/10/10 00:21:06;;;;;;;6.30;3.83;;;14.80;99.90;;;;;;5049496;28;20463;-74
2023/10/10 00:23:42;;;;;;;6.80;3.88;;;14.80;99.90;;;;;;5049296;28;20508;-75
2023/10/10 00:26:22;;;;;;;5.57;4.03;;;14.80;99.90;;;;;;5032816;28;20404;-75
2023/10/10 00:28:54;;;;;;;5.63;3.92;;;14.80;99.90;;;;;;5048988;28;20045;-74
2023/10/10 00:31:22;;;;;;;10.35;5.07;;;14.80;99.90;;;;;;5047872;28;20048;-75
2023/10/10 00:33:50;;;;;;;10.65;4.70;;;14.80;99.90;;;;;;5048877;28;20152;-74
2023/10/10 00:36:27;;;;;;;10.82;4.38;;;14.80;99.90;;;;;;5031532;28;20496;-74
2023/10/10 00:39:30;;;;;;;7.63;4.40;;;14.90;99.90;;;;;;5049134;28;20439;-75
2023/10/10 00:44:17;;;;;;;11.00;4.47;;;14.80;99.90;;;;;;5052698;28;20041;-75
2023/10/10 00:46:54;;;;;;;7.55;5.03;;;14.80;99.90;;;;;;5036370;28;20424;-74
2023/10/10 00:49:23;;;;;;;12.27;4.85;;;14.80;99.90;;;;;;5051923;28;20037;-75
2023/10/10 00:51:56;;;;;;;11.48;5.18;;;14.80;99.90;;;;;;5052494;28;20037;-74
2023/10/10 00:56:56;;;;;;;12.13;4.72;;;14.80;99.90;;;;;;5052495;28;20051;-74
2023/10/10 00:59:35;;;;;;;9.68;5.07;;;14.80;99.90;;;;;;5052031;28;20091;-74
2023/10/10 01:02:03;;;;;;;13.00;5.40;;;14.90;99.90;;;;;;5052107;28;20041;-74
2023/10/10 01:04:35;;;;;;;10.70;5.72;;;14.90;99.90;;;;;;5052210;28;20548;-74
2023/10/10 01:07:03;;;;;;;11.85;5.57;;;14.90;99.90;;;;;;5035970;28;20040;-75
2023/10/10 01:09:33;;;;;;;9.93;5.47;;;14.90;99.90;;;;;;5052028;28;20041;-74
2023/10/10 01:12:00;;;;;;;8.20;5.28;;;14.90;99.90;;;;;;5052052;28;20350;-74
2023/10/10 01:14:26;;;;;;;9.75;5.32;;;14.90;99.90;;;;;;5052132;28;20076;-75
2023/10/10 01:16:57;;;;;;;8.93;5.10;;;14.90;99.90;;;;;;5051818;28;20120;-75
2023/10/10 01:19:28;;;;;;;10.45;5.53;;;15.00;99.90;;;;;;5034318;28;20051;-74
2023/10/10 01:22:00;;;;;;;8.80;5.85;;;15.00;99.90;;;;;;5051016;28;20048;-74
2023/10/10 01:24:26;;;;;;;9.95;5.85;;;15.00;99.90;;;;;;5051539;28;20112;-74
2023/10/10 01:26:53;;;;;;;12.98;6.28;;;15.00;99.90;;;;;;5052184;28;20120;-73
2023/10/10 01:29:25;;;;;;;9.90;5.30;;;15.00;99.90;;;;;;5051499;28;20154;-74
2023/10/10 01:31:58;;;;;;;14.20;5.93;;;15.00;99.90;;;;;;5051723;28;20077;-74
2023/10/10 01:34:31;;;;;;;10.02;6.10;;;15.00;99.90;;;;;;5051685;28;20048;-74
2023/10/10 01:37:02;;;;;;;12.02;5.97;;;15.00;99.90;;;;;;5035453;28;20056;-74
2023/10/10 01:39:51;;;;;;;12.38;6.10;;;15.00;99.90;;;;;;5051269;28;20037;-74
2023/10/10 01:42:18;;;;;;;9.68;5.90;;;15.00;99.90;;;;;;5051528;28;20056;-74
2023/10/10 01:44:43;;;;;;;10.63;6.10;;;15.00;99.90;;;;;;5051481;28;20041;-74
2023/10/10 01:47:26;;;;;;;11.07;6.07;;;15.00;99.90;;;;;;5051411;28;20455;-74
2023/10/10 01:49:53;;;;;;;11.23;6.10;;;15.00;99.90;;;;;;5051255;28;20063;-75
2023/10/10 01:52:21;;;;;;;13.23;6.45;;;15.00;99.90;;;;;;5050552;28;20099;-75
2023/10/10 01:54:52;;;;;;;13.00;7.20;;;15.00;99.90;;;;;;5051366;28;20045;-75
2023/10/10 01:57:21;;;;;;;10.70;6.88;;;15.00;99.90;;;;;;5051337;28;20111;-74
2023/10/10 01:59:48;;;;;;;10.55;6.47;;;15.00;99.90;;;;;;5051067;28;20048;-75
2023/10/10 02:02:16;;;;;;;12.73;7.10;;;15.00;99.90;;;;;;5050978;28;20120;-74
2023/10/10 02:04:42;;;;;;;11.63;6.53;;;15.00;99.90;;;;;;5051016;28;20040;-74
2023/10/10 02:07:19;;;;;;;13.05;6.95;;;15.00;99.90;;;;;;5051493;28;20123;-74
2023/10/10 02:09:53;;;;;;;14.20;7.63;;;15.00;99.90;;;;;;5050916;28;20068;-74
2023/10/10 02:12:22;;;;;;;9.90;7.22;;;15.00;99.90;;;;;;5051034;28;20070;-74
2023/10/10 02:14:48;;;;;;;14.57;7.32;;;15.00;99.90;;;;;;5050918;28;20070;-74
2023/10/10 02:17:26;;;;;;;10.48;6.72;;;15.00;99.90;;;;;;5050850;28;20049;-75
2023/10/10 02:19:59;;;;;;;11.32;6.70;;;15.00;99.90;;;;;;5050667;28;20040;-75
2023/10/10 02:22:47;;;;;;;11.60;7.45;;;14.90;99.90;;;;;;5050923;28;20519;-74
2023/10/10 02:25:36;;;;;;;10.07;6.70;;;14.80;99.90;;;;;;5050817;28;20040;-74
2023/10/10 02:28:05;;;;;;;8.70;6.38;;;14.80;99.90;;;;;;5049809;28;20045;-75
2023/10/10 02:38:40;;;;;;;10.77;6.88;;;14.80;99.90;;;;;;5050281;28;20080;-75
2023/10/10 02:41:25;;;;;;;13.43;6.68;;;14.80;99.90;;;;;;5050320;28;20479;-74
2023/10/10 02:44:02;;;;;;;10.35;6.57;;;14.80;99.90;;;;;;5050384;28;20043;-74
2023/10/10 02:46:36;;;;;;;10.10;6.95;;;14.80;99.90;;;;;;5050164;28;20040;-75
2023/10/10 02:49:09;;;;;;;;;;;14.70;99.90;;;;;;5033880;28;20503;-75
2023/10/10 02:51:36;;;;;;;11.40;6.88;;;14.70;99.90;;;;;;5050576;28;19923;-75
2023/10/10 02:54:10;;;;;;;9.00;6.47;;;14.70;99.90;;;;;;5050417;28;20119;-75
2023/10/10 02:56:43;;;;;;;15.80;7.13;;;14.60;99.90;;;;;;5050151;28;20558;-75
2023/10/10 02:59:09;;;;;;;9.35;6.15;;;14.60;99.90;;;;;;5049973;28;20044;-75
2023/10/10 03:04:22;;;;;;;12.32;7.18;;;14.60;99.90;;;;;;5049258;28;20045;-75
2023/10/10 03:06:48;;;;;;;13.38;7.57;;;14.70;99.90;;;;;;5049318;28;20099;-75
2023/10/10 03:09:38;;;;;;;13.90;7.25;;;14.70;99.90;;;;;;5049771;28;20044;-75
2023/10/10 03:12:05;;;;;;;13.02;7.97;;;14.70;99.90;;;;;;5049862;28;20123;-74
2023/10/10 03:14:35;;;;;;;9.50;7.75;;;14.70;99.90;;;;;;5050030;28;20132;-75
2023/10/10 03:17:09;;;;;;;10.15;8.20;;;14.80;99.90;;;;;;5033371;28;20041;-75
2023/10/10 03:19:41;;;;;;;13.15;8.27;;;14.80;99.90;;;;;;5049632;28;20056;-75
2023/10/10 03:25:22;;;;;;;;;;;14.80;99.90;;;;;;5030407;28;20049;-75
2023/10/10 03:27:50;;;;;;;21.52;9.15;;;14.80;99.90;;;;;;5033506;28;19962;-74
2023/10/10 03:30:34;;;;;;;12.20;9.00;;;14.80;99.90;;;;;;5048159;28;20057;-74
2023/10/10 03:33:08;;;;;;;13.02;9.30;;;14.80;99.90;;;;;;5049088;28;20528;-75
2023/10/10 03:35:59;;;;;;;14.25;8.63;;;14.80;99.90;;;;;;5049952;28;20424;-75
2023/10/10 05:25:14;;;;;;;;;;;14.70;99.90;;;;;;5051429;28;20103;-75
2023/10/10 05:27:43;;;;;;;19.55;13.70;;;14.70;99.90;;;;;;5050135;28;19995;-75
2023/10/10 05:30:23;;;;;;;23.50;14.23;;;14.70;99.90;;;;;;5051687;28;20049;-75
2023/10/10 05:33:03;;;;;;;22.35;14.15;;;14.70;99.90;;;;;;5051989;28;20041;-75
2023/10/10 05:35:36;;;;;;;20.45;14.60;;;14.70;99.90;;;;;;5052157;28;20392;-75
2023/10/10 05:38:04;;;;;;;23.92;15.77;;;14.70;99.90;;;;;;5051642;28;20052;-74
2023/10/10 05:40:33;;;;;;;25.98;16.38;;;14.70;99.90;;;;;;5034191;28;20432;-75
2023/10/10 05:42:59;;;;;;;33.80;18.17;;;14.70;99.90;;;;;;5050211;28;20404;-74
2023/10/10 05:45:25;;;;;;;27.65;17.60;;;14.70;99.90;;;;;;5051382;28;20488;-74
2023/10/10 05:47:51;;;;;;;26.17;17.30;;;14.70;99.90;;;;;;5051677;28;20119;-75
2023/10/10 05:50:18;;;;;;;28.77;17.98;;;14.70;99.90;;;;;;5034657;28;20068;-75
2023/10/10 05:52:44;;;;;;;27.20;16.70;;;14.70;99.90;;;;;;5051251;28;20494;-75
2023/10/10 05:55:10;;;;;;;26.10;16.50;;;14.70;99.90;;;;;;5052757;28;20045;-75
2023/10/10 05:57:39;;;;;;;26.52;17.40;;;14.70;99.90;;;;;;5051543;28;20408;-75
2023/10/10 06:00:10;;;;;;;37.85;18.65;;;14.60;99.90;;;;;;5050865;28;20040;-75
2023/10/10 06:02:46;;;;;;;29.77;18.15;;;14.60;99.90;;;;;;5051121;28;20559;-75
2023/10/10 06:05:15;;;;;;;35.03;18.75;;;14.70;99.90;;;;;;5050184;28;20044;-75
2023/10/10 06:07:44;;;;;;;38.53;19.48;;;14.70;99.90;;;;;;5051092;28;20033;-75
2023/10/10 06:10:17;;;;;;;36.17;19.05;;;14.70;99.90;;;;;;5052078;28;20445;-75
2023/10/10 06:12:44;;;;;;;33.55;18.27;;;14.70;99.90;;;;;;5051445;28;20124;-74
2023/10/10 06:15:11;;;;;;;31.40;17.92;;;14.70;99.90;;;;;;5050158;28;20045;-75
2023/10/10 06:17:38;;;;;;;29.95;17.75;;;14.70;99.90;;;;;;5050672;28;20522;-75
2023/10/10 06:20:06;;;;;;;31.42;17.98;;;14.70;99.90;;;;;;5050757;28;20108;-76
2023/10/10 06:22:32;;;;;;;31.15;18.25;;;14.80;99.90;;;;;;5034166;28;20132;-75
2023/10/10 06:24:58;;;;;;;32.35;19.02;;;14.80;99.90;;;;;;5050797;28;20112;-75
2023/10/10 06:27:28;;;;;;;29.65;18.27;;;14.80;99.90;;;;;;5050709;28;20057;-75
2023/10/10 06:29:58;;;;;;;36.83;18.75;;;14.80;99.90;;;;;;5050430;28;20041;-75
2023/10/10 06:32:30;;;;;;;28.92;17.92;;;14.80;99.90;;;;;;5034498;28;20515;-75
2023/10/10 06:37:44;;;;;;;34.22;19.13;;;14.90;99.90;;;;;;5050372;28;20135;-74
2023/10/10 06:40:10;;;;;;;35.45;19.35;;;14.90;99.90;;;;;;5050099;28;20488;-75
2023/10/10 06:42:46;;;;;;;30.40;19.35;;;15.00;99.90;;;;;;5049530;28;20045;-75
2023/10/10 06:45:21;;;;;;;34.65;18.92;;;15.00;99.90;;;;;;5050393;28;20051;-76
2023/10/10 06:47:50;;;;;;;33.00;18.88;;;15.00;99.90;;;;;;5050153;28;20055;-75
2023/10/10 06:50:21;;;;;;;31.55;18.58;;;15.10;99.90;;;;;;5050286;28;20538;-75
2023/10/10 06:52:47;;;;;;;32.47;18.27;;;15.10;99.90;;;;;;5050583;28;20447;-75
2023/10/10 06:55:20;;;;;;;30.90;18.20;;;15.20;99.90;;;;;;5050140;28;20084;-75
2023/10/10 06:58:02;;;;;;;32.50;19.20;;;15.20;99.90;;;;;;5048806;28;20044;-75
2023/10/10 07:00:42;;;;;;;31.10;18.75;;;15.20;99.90;;;;;;5049747;28;20051;-75
2023/10/10 07:03:08;;;;;;;28.85;17.65;;;15.20;99.90;;;;;;5050290;28;20041;-76
2023/10/10 07:05:34;;;;;;;29.15;17.15;;;15.30;99.90;;;;;;5050007;28;20040;-74
2023/10/10 07:08:12;;;;;;;27.02;16.60;;;15.30;99.90;;;;;;5049866;28;20037;-75
2023/10/10 07:10:45;;;;;;;31.13;17.40;;;15.30;99.90;;;;;;5049825;28;20124;-75
2023/10/10 07:13:14;;;;;;;26.17;16.60;;;15.40;99.90;;;;;;5048234;28;20045;-75
2023/10/10 07:15:41;;;;;;;28.05;18.38;;;15.40;99.90;;;;;;5032453;28;20037;-74
2023/10/10 07:18:14;;;;;;;28.30;17.48;;;15.50;99.90;;;;;;5049662;28;20558;-75
2023/10/10 07:23:37;;;;;;;25.27;16.25;;;15.60;99.90;;;;;;5049824;28;20083;-76
2023/10/10 07:26:07;;;;;;;26.55;17.42;;;15.60;99.90;;;;;;5051086;28;20089;-75
2023/10/10 07:28:47;;;;;;;24.67;17.25;;;15.60;99.90;;;;;;5049698;28;20112;-76
2023/10/10 07:31:17;;;;;;;26.70;17.10;;;15.60;99.90;;;;;;5033233;28;20102;-76
2023/10/10 07:33:57;;;;;;;25.50;16.20;;;15.60;99.90;;;;;;5049705;28;20037;-75
2023/10/10 07:36:27;;;;;;;26.57;16.87;;;15.70;99.90;;;;;;5049786;28;20041;-75
2023/10/10 07:41:44;;;;;;;27.73;18.45;;;15.70;99.90;;;;;;5049535;28;20049;-75
2023/10/10 07:44:10;;;;;;;29.92;17.92;;;15.70;99.90;;;;;;5049564;28;20102;-75
2023/10/10 07:46:36;;;;;;;31.98;18.95;;;15.80;99.90;;;;;;5049531;28;20081;-73
2023/10/10 07:49:03;;;;;;;34.38;21.13;;;15.90;99.90;;;;;;5031616;28;20056;-75
2023/10/10 07:51:29;;;;;;;38.35;22.27;;;15.90;99.90;;;;;;5051351;28;20048;-75
2023/10/10 07:54:12;;;;;;;38.58;22.50;;;16.00;99.90;;;;;;5053717;28;20033;-75
2023/10/10 07:56:45;;;;;;;40.55;22.58;;;16.00;99.90;;;;;;5053495;28;20036;-75
2023/10/10 07:59:14;;;;;;;40.50;22.93;;;16.10;99.90;;;;;;5053220;28;20041;-73
2023/10/10 08:01:44;;;;;;;37.17;23.02;;;16.20;99.90;;;;;;5035904;28;20128;-75
2023/10/10 08:04:13;;;;;;;42.60;24.65;;;16.30;99.90;;;;;;5053780;28;20500;-74
2023/10/10 08:06:38;;;;;;;44.58;24.92;;;16.40;99.90;;;;;;5053470;28;20037;-74
2023/10/10 08:09:18;;;;;;;41.13;24.42;;;16.50;99.90;;;;;;5052539;28;20123;-75
2023/10/10 08:11:45;;;;;;;42.30;24.65;;;16.60;99.90;;;;;;5053095;28;20551;-74
2023/10/10 08:14:11;;;;;;;40.10;24.52;;;16.60;99.90;;;;;;5052976;28;20315;-74
2023/10/10 08:16:41;;;;;;;39.33;25.10;;;16.70;99.90;;;;;;5053101;28;20044;-73
2023/10/10 08:19:10;;;;;;;37.95;23.23;;;16.70;99.90;;;;;;5052988;28;20033;-74
2023/10/10 08:21:38;;;;;;;40.00;25.80;;;16.80;99.90;;;;;;5053263;28;20411;-74
2023/10/10 08:24:06;;;;;;;42.72;25.67;;;16.90;99.90;;;;;;5052225;28;20607;-75
2023/10/10 08:26:39;;;;;;;41.30;26.45;;;16.90;99.90;;;;;;5051870;28;20043;-74
2023/10/10 08:29:08;;;;;;;38.22;26.02;;;16.90;99.90;;;;;;5036460;28;20045;-75
2023/10/10 08:31:44;;;;;;;36.90;23.95;;;17.00;99.90;;;;;;5053041;28;20044;-74
2023/10/10 08:34:10;;;;;;;39.33;24.92;;;17.00;99.90;;;;;;5053205;28;20036;-74
2023/10/10 08:36:37;;;;;;;39.47;25.27;;;17.00;99.90;;;;;;5052896;28;20040;-74
2023/10/10 08:41:42;;;;;;;35.17;24.10;;;17.10;99.90;;;;;;5052894;28;20128;-74
2023/10/10 08:44:14;;;;;;;38.40;26.05;;;17.20;99.90;;;;;;5052474;28;20037;-73
2023/10/10 08:46:41;;;;;;;35.50;24.58;;;17.30;99.90;;;;;;5051232;28;20037;-74
2023/10/10 08:49:08;;;;;;;35.05;24.10;;;17.40;99.90;;;;;;5050669;28;20129;-73
2023/10/10 08:51:34;;;;;;;38.10;25.55;;;17.50;99.90;;;;;;5052060;28;20082;-75
2023/10/10 08:54:11;;;;;;;36.10;25.13;;;17.50;99.90;;;;;;5052830;28;20440;-75
2023/10/10 08:56:59;;;;;;;37.72;24.85;;;17.50;99.90;;;;;;5052285;28;20033;-74
2023/10/10 08:59:25;;;;;;;35.40;24.55;;;17.60;99.90;;;;;;5052090;28;20062;-74
2023/10/10 09:01:50;;;;;;;40.60;25.15;;;17.70;99.90;;;;;;5051087;28;20037;-74
2023/10/10 09:04:20;;;;;;;37.25;26.20;;;17.70;99.90;;;;;;5051477;28;20063;-74
2023/10/10 09:07:00;;;;;;;41.50;27.48;;;17.70;99.90;;;;;;5051027;28;20063;-74
2023/10/10 09:09:37;;;;;;;45.45;28.50;;;17.60;99.90;;;;;;5052338;28;20439;-74
2023/10/10 09:12:04;;;;;;;46.38;27.88;;;17.70;99.90;;;;;;5052314;28;20412;-74
2023/10/10 09:14:41;;;;;;;45.88;28.85;;;17.70;99.90;;;;;;5052037;28;20115;-74
2023/10/10 09:17:40;;;;;;;45.92;28.00;;;17.70;99.90;;;;;;5052229;28;20373;-74
2023/10/10 09:20:18;;;;;;;43.00;29.10;;;17.80;99.90;;;;;;5051709;28;20045;-74
2023/10/10 09:22:44;;;;;;;44.10;29.73;;;17.90;99.90;;;;;;5051209;28;20087;-74
2023/10/10 09:25:43;;;;;;;49.97;30.27;;;18.10;99.90;;;;;;5050858;28;20071;-74
2023/10/10 09:28:16;;;;;;;47.90;30.13;;;18.10;99.90;;;;;;5051908;28;20073;-73
2023/10/10 09:30:49;;;;;;;46.78;30.60;;;18.10;99.90;;;;;;5052024;28;20045;-77
2023/10/10 09:35:53;;;;;;;45.15;29.95;;;18.10;99.90;;;;;;5051781;28;20049;-75
2023/10/10 09:38:22;;;;;;;47.95;28.45;;;18.10;99.90;;;;;;5035045;28;20179;-74
2023/10/10 09:40:48;;;;;;;43.78;28.38;;;18.20;99.90;;;;;;5051440;28;20127;-75
2023/10/10 09:43:35;;;;;;;45.97;28.50;;;18.30;99.90;;;;;;5051427;28;20348;-75
2023/10/10 09:46:19;;;;;;;47.95;28.83;;;18.30;99.90;;;;;;5051473;28;20531;-75
2023/10/10 09:49:40;;;;;;;47.03;27.02;;;18.40;99.90;;;;;;5050940;28;20033;-74
2023/10/10 09:54:25;;;;;;;40.42;25.35;;;18.50;99.90;;;;;;5051428;28;20037;-74
2023/10/10 09:56:53;;;;;;;40.05;26.08;;;18.50;99.90;;;;;;5051392;28;20037;-75
2023/10/10 09:59:20;;;;;;;41.28;25.77;;;18.50;99.90;;;;;;5051009;28;20029;-75
2023/10/10 10:01:47;;;;;;;43.83;26.73;;;18.60;99.90;;;;;;5050755;28;20044;-75
2023/10/10 10:04:25;;;;;;;39.60;25.45;;;18.60;99.90;;;;;;5050509;28;20125;-74
2023/10/10 10:07:12;;;;;;;40.85;25.20;;;18.60;99.90;;;;;;5051060;28;20040;-74
2023/10/10 10:10:09;;;;;;;41.05;25.25;;;18.60;99.90;;;;;;5032914;28;20506;-74
2023/10/10 10:12:52;;;;;;;42.65;25.48;;;18.60;99.90;;;;;;5050273;28;20519;-75
2023/10/10 10:15:39;;;;;;;42.92;25.88;;;18.70;99.90;;;;;;5051252;28;20044;-74
2023/10/10 10:18:19;;;;;;;42.38;26.33;;;18.70;99.90;;;;;;5050995;28;20044;-74
2023/10/10 10:21:04;;;;;;;43.28;25.25;;;18.70;99.90;;;;;;5051048;28;20451;-75
2023/10/10 10:23:33;;;;;;;37.58;24.55;;;18.80;99.90;;;;;;5034111;28;20045;-74
2023/10/10 10:26:12;;;;;;;37.97;24.15;;;18.90;99.90;;;;;;5050558;28;20194;-73
2023/10/10 10:28:41;;;;;;;38.42;24.55;;;19.00;99.90;;;;;;5050643;28;20041;-75
2023/10/10 10:31:16;;;;;;;39.20;24.52;;;19.10;99.90;;;;;;5050856;28;20496;-73
2023/10/10 10:34:05;;;;;;;36.88;23.52;;;19.20;99.90;;;;;;5050654;28;20040;-75
2023/10/10 10:36:45;;;;;;;39.00;23.80;;;19.30;99.90;;;;;;5050713;28;20045;-75
2023/10/10 10:39:19;;;;;;;37.00;23.17;;;19.40;99.90;;;;;;5033555;28;20051;-75
2023/10/10 10:41:53;;;;;;;36.38;21.85;;;19.40;99.90;;;;;;5050520;28;20052;-75
2023/10/10 10:44:45;;;;;;;39.15;22.77;;;19.50;99.90;;;;;;5050635;28;20045;-74
2023/10/10 10:47:35;;;;;;;32.90;21.27;;;19.50;99.90;;;;;;5050722;28;20439;-76
2023/10/10 10:50:17;;;;;;;29.55;20.50;;;19.60;99.90;;;;;;5030498;28;20045;-75
2023/10/10 10:52:58;;;;;;;35.08;21.58;;;19.70;99.90;;;;;;5033979;28;20044;-75
2023/10/10 10:55:29;;;;;;;33.75;21.90;;;19.80;99.90;;;;;;5050153;28;20041;-75
2023/10/10 10:58:06;;;;;;;35.35;21.63;;;19.90;99.90;;;;;;5050186;28;20079;-74
2023/10/10 11:01:07;;;;;;;32.47;21.92;;;19.90;99.90;;;;;;5049903;28;20044;-75
2023/10/10 11:03:37;;;;;;;37.95;22.60;;;19.90;99.90;;;;;;5050190;28;20508;-75
2023/10/10 11:06:07;;;;;;;33.55;22.40;;;19.80;99.90;;;;;;5050039;28;20578;-75
2023/10/10 11:11:24;;;;;;;38.28;23.23;;;19.70;99.90;;;;;;5049424;28;20049;-74
2023/10/10 11:14:00;;;;;;;34.38;21.85;;;19.60;99.90;;;;;;5050052;28;20287;-75
2023/10/10 11:16:38;;;;;;;34.10;21.52;;;19.60;99.90;;;;;;5049617;28;20037;-75
2023/10/10 11:19:38;;;;;;;33.88;21.98;;;19.60;99.90;;;;;;5048676;28;20049;-75
2023/10/10 11:22:05;;;;;;;34.58;22.73;;;19.70;99.90;;;;;;5049717;28;20033;-74
2023/10/10 11:24:34;;;;;;;35.65;22.17;;;19.80;99.90;;;;;;5049753;28;20500;-75
2023/10/10 11:29:48;;;;;;;34.58;21.77;;;19.90;99.90;;;;;;5050742;28;20044;-75
2023/10/10 11:32:24;;;;;;;35.53;21.38;;;20.00;99.90;;;;;;5049339;28;20072;-74
2023/10/10 11:34:56;;;;;;;32.70;21.75;;;20.10;99.90;;;;;;5050136;28;20298;-75
2023/10/10 11:37:32;;;;;;;36.25;22.73;;;20.20;99.90;;;;;;5049959;28;20040;-74
2023/10/10 11:42:56;;;;;;;34.10;22.05;;;20.20;99.90;;;;;;5049798;28;20049;-74
2023/10/10 11:45:27;;;;;;;29.38;21.63;;;20.20;99.90;;;;;;5049436;28;20080;-75
2023/10/10 11:48:05;;;;;;;34.30;21.55;;;20.30;99.90;;;;;;5050792;28;20045;-75
2023/10/10 11:50:59;;;;;;;33.05;21.48;;;20.60;99.90;;;;;;5049545;28;20432;-74
2023/10/10 11:53:27;;;;;;;;;;;20.80;99.90;;;;;;5050196;28;20037;-74
2023/10/10 11:55:54;;;;;;;29.23;20.08;;;21.10;99.90;;;;;;5049482;28;19920;-74
2023/10/10 11:58:20;;;;;;;29.27;19.92;;;21.20;99.90;;;;;;5049365;28;20045;-76
2023/10/10 12:00:59;;;;;;;28.65;20.05;;;21.30;99.90;;;;;;5049160;28;20044;-75
2023/10/10 12:06:06;;;;;;;28.58;20.27;;;21.70;99.90;;;;;;5049430;28;20041;-74
2023/10/10 12:08:36;;;;;;;31.80;19.67;;;21.90;99.90;;;;;;5031944;28;20040;-75
2023/10/10 12:11:15;;;;;;;33.58;19.13;;;22.00;99.90;;;;;;5049672;28;20072;-75
2023/10/10 12:13:44;;;;;;;29.65;20.05;;;22.10;99.90;;;;;;5049386;28;20067;-74
2023/10/10 12:16:13;;;;;;;30.88;19.52;;;22.10;99.90;;;;;;5048375;28;20083;-75
2023/10/10 12:18:49;;;;;;;27.83;18.80;;;22.20;99.90;;;;;;5047917;28;20404;-76
2023/10/10 12:21:20;;;;;;;26.63;18.42;;;22.20;99.90;;;;;;5049200;28;20504;-76
2023/10/10 12:23:50;;;;;;;25.88;17.58;;;22.30;99.90;;;;;;5049093;28;20045;-76
2023/10/10 12:26:18;;;;;;;36.13;17.52;;;22.30;99.90;;;;;;5049557;28;20083;-75
2023/10/10 12:28:44;;;;;;;24.75;17.05;;;22.20;99.90;;;;;;5048845;28;20455;-76
2023/10/10 12:31:15;;;;;;;28.48;17.60;;;22.10;99.90;;;;;;5049238;28;20044;-76
2023/10/10 12:33:53;;;;;;;29.00;17.80;;;22.10;99.90;;;;;;5049372;28;20085;-74
2023/10/10 12:36:22;;;;;;;27.50;17.58;;;22.10;99.90;;;;;;5050532;28;20378;-76
2023/10/10 12:38:48;;;;;;;25.98;16.10;;;22.10;99.90;;;;;;5052445;28;20067;-75
2023/10/10 12:41:20;;;;;;;27.55;16.45;;;22.00;99.90;;;;;;5036119;28;20041;-76
2023/10/10 12:43:46;;;;;;;19.75;13.43;;;22.00;99.90;;;;;;5052594;28;20044;-76
2023/10/10 12:46:16;;;;;;;19.23;12.93;;;21.80;99.90;;;;;;5052565;28;20037;-75
2023/10/10 12:48:42;;;;;;;20.05;13.00;;;21.70;99.90;;;;;;5052231;28;20045;-76
2023/10/10 12:51:11;;;;;;;21.48;12.43;;;21.50;99.90;;;;;;5052820;28;20480;-75
2023/10/10 12:53:42;;;;;;;20.13;12.95;;;21.50;99.90;;;;;;5052478;28;20033;-75
2023/10/10 12:56:27;;;;;;;20.25;11.93;;;21.50;99.90;;;;;;5052741;28;20045;-76
2023/10/10 12:58:57;;;;;;;20.40;12.88;;;21.60;99.90;;;;;;5052090;28;20052;-76
2023/10/10 13:01:23;;;;;;;18.65;12.95;;;21.50;99.90;;;;;;5052480;28;20045;-76
2023/10/10 13:03:50;;;;;;;22.75;14.02;;;21.50;99.90;;;;;;5052239;28;20041;-75
2023/10/10 13:06:16;;;;;;;21.95;13.93;;;21.40;99.90;;;;;;5052100;28;20437;-76
2023/10/10 13:08:49;;;;;;;22.98;13.88;;;21.30;99.90;;;;;;5051400;28;20598;-76
2023/10/10 13:11:16;;;;;;;20.52;13.38;;;21.30;99.90;;;;;;5051636;28;20124;-75
2023/10/10 13:13:45;;;;;;;21.35;13.35;;;21.40;99.90;;;;;;5052276;28;20045;-76
2023/10/10 13:16:25;;;;;;;20.42;13.52;;;21.50;99.90;;;;;;5035552;28;20045;-75
2023/10/10 13:18:56;;;;;;;19.40;13.18;;;21.50;99.90;;;;;;5052157;28;20085;-75
2023/10/10 13:21:25;;;;;;;22.67;13.93;;;21.50;99.90;;;;;;5052403;28;20409;-75
2023/10/10 13:23:52;;;;;;;22.00;13.20;;;21.40;99.90;;;;;;5051767;28;20045;-75
2023/10/10 13:26:20;;;;;;;21.58;13.82;;;21.30;99.90;;;;;;5052076;28;20037;-76
2023/10/10 13:28:46;;;;;;;20.27;13.20;;;21.30;99.90;;;;;;5051622;28;20041;-76
2023/10/10 13:31:19;;;;;;;22.85;14.38;;;21.20;99.90;;;;;;5051925;28;20033;-75
2023/10/10 13:33:45;;;;;;;21.60;14.40;;;21.20;99.90;;;;;;5051910;28;20527;-75
2023/10/10 13:36:14;;;;;;;22.70;15.00;;;21.10;99.90;;;;;;5051791;28;20295;-77
2023/10/10 13:38:47;;;;;;;27.35;15.25;;;21.00;99.90;;;;;;5034867;28;20132;-76
2023/10/10 13:41:18;;;;;;;23.17;15.15;;;20.90;99.90;;;;;;5052015;28;20048;-76
2023/10/10 13:43:47;;;;;;;27.00;15.93;;;20.90;99.90;;;;;;5051524;28;20041;-76
2023/10/10 13:46:21;;;;;;;23.70;15.13;;;20.90;99.90;;;;;;5050584;28;20049;-76
2023/10/10 13:48:47;;;;;;;24.02;15.35;;;21.00;99.90;;;;;;5031823;28;20071;-76
2023/10/10 13:51:14;;;;;;;25.40;16.42;;;21.00;99.90;;;;;;5050239;28;20075;-74
2023/10/10 13:53:40;;;;;;;25.52;16.33;;;21.00;99.90;;;;;;5051400;28;20063;-75
2023/10/10 13:56:07;;;;;;;27.63;16.10;;;21.00;99.90;;;;;;5051354;28;20182;-75
2023/10/10 13:58:36;;;;;;;27.02;16.42;;;21.10;99.90;;;;;;5051138;28;20048;-75
2023/10/10 14:01:14;;;;;;;23.08;15.23;;;21.10;99.90;;;;;;5051228;28;20047;-75
2023/10/10 14:03:56;;;;;;;24.88;15.15;;;21.20;99.90;;;;;;5050360;28;20041;-74
2023/10/10 14:06:26;;;;;;;26.30;16.73;;;21.10;99.90;;;;;;5049576;28;20063;-75
2023/10/10 14:08:52;;;;;;;23.52;16.35;;;21.00;99.90;;;;;;5051120;28;20171;-76
2023/10/10 14:11:22;;;;;;;27.58;16.15;;;21.00;99.90;;;;;;5051361;28;20041;-76
2023/10/10 14:13:54;;;;;;;26.75;16.63;;;20.90;99.90;;;;;;5051078;28;20041;-76
2023/10/10 14:16:22;;;;;;;30.75;15.90;;;20.90;99.90;;;;;;5050921;28;20040;-76
2023/10/10 14:18:51;;;;;;;28.98;17.63;;;20.80;99.90;;;;;;5050578;28;20037;-76
2023/10/10 14:21:24;;;;;;;25.63;16.67;;;20.80;99.90;;;;;;5050866;28;20530;-75
2023/10/10 14:23:54;;;;;;;24.83;17.40;;;20.80;99.90;;;;;;5033046;28;20103;-76
2023/10/10 14:26:26;;;;;;;21.85;15.95;;;20.80;99.90;;;;;;5033167;28;20037;-75
2023/10/10 14:28:52;;;;;;;30.30;16.45;;;20.70;99.90;;;;;;5050495;28;20060;-75
2023/10/10 14:31:23;;;;;;;25.75;17.05;;;20.70;99.90;;;;;;5050533;28;20400;-75
2023/10/10 14:33:50;;;;;;;26.20;16.35;;;20.60;99.90;;;;;;5050825;28;20041;-76
2023/10/10 14:36:16;;;;;;;26.80;17.13;;;20.60;99.90;;;;;;5050643;28;20132;-74
2023/10/10 14:38:48;;;;;;;27.08;17.73;;;20.60;99.90;;;;;;5033954;28;20094;-75
2023/10/10 14:41:19;;;;;;;26.15;16.45;;;20.60;99.90;;;;;;5050845;28;20260;-75
2023/10/10 14:43:49;;;;;;;26.52;17.60;;;20.50;99.90;;;;;;5050501;28;20055;-76
2023/10/10 14:46:22;;;;;;;27.85;17.60;;;20.50;99.90;;;;;;5050469;28;20047;-74
2023/10/10 14:48:49;;;;;;;23.77;16.55;;;20.50;99.90;;;;;;5050115;28;20037;-76
2023/10/10 14:51:17;;;;;;;27.05;16.50;;;20.40;99.90;;;;;;5052117;28;20076;-76
2023/10/10 14:53:51;;;;;;;23.73;15.93;;;20.40;99.90;;;;;;5050352;28;20124;-75
2023/10/10 14:56:22;;;;;;;25.05;15.90;;;20.50;99.90;;;;;;5050294;28;20036;-75
2023/10/10 14:58:49;;;;;;;25.55;15.93;;;20.50;99.90;;;;;;5049967;28;20428;-76
2023/10/10 15:01:18;;;;;;;22.25;14.82;;;20.50;99.90;;;;;;5048658;28;20049;-75
2023/10/10 15:03:44;;;;;;;22.42;14.95;;;20.50;99.90;;;;;;5048793;28;20080;-76
2023/10/10 15:06:09;;;;;;;22.45;15.07;;;20.50;99.90;;;;;;5049204;28;20041;-76
2023/10/10 15:08:35;;;;;;;23.02;15.57;;;20.50;99.90;;;;;;5033200;28;20039;-75
2023/10/10 15:11:00;;;;;;;21.58;15.52;;;20.50;99.90;;;;;;5050093;28;20040;-75
2023/10/10 15:13:26;;;;;;;25.63;15.35;;;20.40;99.90;;;;;;5033437;28;20489;-76
2023/10/10 15:15:52;;;;;;;24.00;15.38;;;20.40;99.90;;;;;;5050069;28;20076;-75
2023/10/10 15:18:18;;;;;;;23.90;15.82;;;20.40;99.90;;;;;;5049802;28;20041;-76
2023/10/10 15:20:48;;;;;;;21.92;15.05;;;20.40;99.90;;;;;;5049868;28;20067;-74
2023/10/10 15:23:18;;;;;;;24.40;15.35;;;20.30;99.90;;;;;;5033127;28;20704;-75
2023/10/10 15:25:55;;;;;;;23.15;15.23;;;20.30;99.90;;;;;;5049824;28;20041;-73
2023/10/10 15:28:22;;;;;;;22.60;15.60;;;20.20;99.90;;;;;;5049817;28;20040;-77